Celebrity Reflection — 9HA3047 — position and weather

sailwx.info

Track history (hours):
 
Tides and Currents Weather Stations Pressure Air Temp Water Temp Dewpoint Dewpoint Depression Visibility Wind Speed Wind Dir Waves Ship Positions

Celebrity Reflection

Last reported at 2018-Sep-24 21:00 UTC. Time now 2018-Sep-24 21:23 UTC.
Position N 36°42' E 023°49'.

Length 319 m; draft 8.6 m.

Type: Ship. MMSI: 229074000.

Date/timePositionNaut miles runAvg speedWind from/ knotsBaromVisibWave heightAir tempDewpointWater temp
2018-Sep-24 21:00N 36°42' E 023°49'815.8
2018-Sep-24 20:30N 36°37' E 023°41'715.8
2018-Sep-24 20:03N 36°33' E 023°34'115.9
2018-Sep-24 20:00N 36°33' E 023°33'815.7
2018-Sep-24 19:30N 36°29' E 023°25'4116.2
2018-Sep-24 17:00N 36°18' E 022°36'2914.5 230 / 161012.0 26.1 27.1
2018-Sep-24 15:00N 36°18' E 022°00'8216.5 270 / 131014.0 5.4 26.9 27.3
2018-Sep-24 10:00N 36°12' E 020°18'5819.5 290 / 81020.0 26.3 27.4
2018-Sep-24 07:00N 36°06' E 019°06'3411.3 290 / 91017.0 27.0 27.4
2018-Sep-24 04:00N 36°06' E 018°24'5919.5 300 / 151017.0 5.4 25.821.827.6
2018-Sep-24 01:00N 36°00' E 017°12'9713.9 290 / 121020.0 25.2 27.7
2018-Sep-23 18:00N 35°54' E 015°12'1514.6 310 / 51020.0 26.2 27.7
2018-Sep-23 17:00N 35°54' E 014°54'1038.2 340 / 51019.0 5.4 26.325.528.0
2018-Sep-23 16:43N 35°55' E 014°41'315.5
2018-Sep-23 16:30N 35°55' E 014°37'5 2.6
2018-Sep-23 14:28N 35°54' E 014°31'612.0
2018-Sep-23 14:00N 35°48' E 014°30'10 1.4 050 / 41020.0 27.6 28.3
2018-Sep-23 07:00N 35°48' E 014°42'30 7.6 290 / 21020.0 27.9 28.1
2018-Sep-23 03:00N 36°18' E 014°48'2613.2 310 / 61018.0 5.4 25.624.827.2
2018-Sep-23 01:00N 36°36' E 015°12'4212.2 290 / 101018.0 24.0 27.1
2018-Sep-22 21:30N 37°17' E 015°27'611.2
2018-Sep-22 21:00N 37°22' E 015°28'1910.9
2018-Sep-22 19:15N 37°41' E 015°31'913.5
2018-Sep-22 18:36N 37°50' E 015°32'113.5
2018-Sep-22 18:30N 37°51' E 015°32'713.5
2018-Sep-22 18:01N 37°58' E 015°33'4243.9
2018-Sep-22 18:00N 37°54' E 015°30'5326.6 100 / 51018.0 26.1 27.3
2018-Sep-22 17:59N 37°58' E 015°33'613.3
2018-Sep-22 17:30N 38°05' E 015°34'613.2
2018-Sep-22 17:03N 38°10' E 015°35'112.8
2018-Sep-22 17:00N 38°11' E 015°35'7 3.3
2018-Sep-22 15:00N 38°06' E 015°30'0 0.0 200 / 61016.010.8 26.723.724.0
2018-Sep-22 14:00N 38°06' E 015°30'62238.9 200 / 131016.0 26.9 24.0
2018-Sep-22 13:59N 38°12' E 015°33'0 0.0
2018-Sep-22 13:30N 38°12' E 015°33'0 0.0
2018-Sep-22 11:46N 38°12' E 015°33'0 0.0
2018-Sep-22 11:28N 38°12' E 015°33'0 0.0
2018-Sep-22 10:34N 38°12' E 015°33'0 0.0
2018-Sep-22 10:28N 38°12' E 015°33'0 0.0
2018-Sep-22 10:03N 38°12' E 015°33'0 0.0
2018-Sep-22 09:57N 38°12' E 015°33'0 0.0
2018-Sep-22 09:25N 38°12' E 015°33'0 0.0
2018-Sep-22 09:01N 38°12' E 015°33'0 0.0
2018-Sep-22 08:49N 38°12' E 015°33'0 0.0
2018-Sep-22 08:25N 38°12' E 015°33'0 0.0
2018-Sep-22 08:01N 38°12' E 015°33'0 0.0
2018-Sep-22 07:59N 38°12' E 015°33'0 0.2
2018-Sep-22 07:30N 38°12' E 015°34'2 4.9
2018-Sep-22 07:03N 38°13' E 015°36'114.1
2018-Sep-22 07:00N 38°14' E 015°36'613.0
2018-Sep-22 06:30N 38°20' E 015°39'817.5
2018-Sep-22 06:03N 38°27' E 015°35'117.1
2018-Sep-22 06:00N 38°27' E 015°34'917.3
2018-Sep-22 05:29N 38°35' E 015°29'817.2
2018-Sep-22 05:02N 38°42' E 015°24'017.1
2018-Sep-22 05:00N 38°43' E 015°24'1018.8
2018-Sep-22 04:28N 38°51' E 015°17'511.2
2018-Sep-22 04:00N 38°48' E 015°12'7323.5 100 / 151015.0 5.4 25.223.526.8
2018-Sep-22 00:53N 39°44' E 014°12'920.6
2018-Sep-22 00:28N 39°51' E 014°04'820.0
2018-Sep-22 00:03N 39°56' E 013°57'120.5
2018-Sep-22 00:00N 39°57' E 013°56'10625.6
2018-Sep-22 00:00N 39°48' E 014°00'3927.0 080 / 131015.0 24.9 26.6
2018-Sep-21 22:33N 40°19' E 013°28'320.5
2018-Sep-21 22:24N 40°21' E 013°26'1020.4
2018-Sep-21 21:56N 40°28' E 013°17'1320.4
2018-Sep-21 21:18N 40°37' E 013°05'5220.2
2018-Sep-21 18:43N 41°18' E 012°23'420.6
2018-Sep-21 18:30N 41°22' E 012°20'611.8
2018-Sep-21 18:00N 41°24' E 012°12'2827.5 030 / 71016.0 25.3 26.2
2018-Sep-21 17:00N 41°48' E 011°54'20 5.0 320 / 31016.0 5.4 25.015.726.2
2018-Sep-21 13:00N 42°06' E 011°42'0 0.0 1016.0 26.7 26.0
2018-Sep-21 07:00N 42°06' E 011°42'0 0.0 010 / 41015.0 24.6 25.8
2018-Sep-21 04:00N 42°06' E 011°42'21 7.2 020 / 41015.0 5.4 22.6 25.7
2018-Sep-21 01:00N 41°54' E 011°18'1410.8 140 / 91018.0 23.2
2018-Sep-20 23:41N 41°51' E 010°60'515.0
2018-Sep-20 23:22N 41°49' E 010°54'614.9
2018-Sep-20 23:00N 41°47' E 010°47'915.0
2018-Sep-20 22:25N 41°44' E 010°36'1615.3
2018-Sep-20 21:21N 41°39' E 010°15'515.4
2018-Sep-20 21:03N 41°37' E 010°09'4715.4
2018-Sep-20 18:00N 41°18' E 009°12'512.8 020 / 221015.0 25.4 26.2
2018-Sep-20 17:37N 41°18' E 009°06'215.3
2018-Sep-20 17:30N 41°18' E 009°03'715.0
2018-Sep-20 17:03N 41°17' E 008°54'115.0
2018-Sep-20 17:00N 41°17' E 008°54'815.2
2018-Sep-20 16:30N 41°15' E 008°44'1732.3
2018-Sep-20 16:00N 41°30' E 008°54'16818.7 080 / 101015.010.8 26.2 26.2
2018-Sep-20 07:00N 40°06' E 005°42'5919.6 340 / 161018.0 25.0 26.5
2018-Sep-20 04:00N 39°36' E 004°36'15 5.1 350 / 171019.0 5.4 24.7 26.8
2018-Sep-20 01:00N 39°24' E 004°24'3229.3 360 / 141019.0 20.4 26.9
2018-Sep-19 23:55N 39°18' E 003°44'715.8
2018-Sep-19 23:29N 39°15' E 003°36'715.4
2018-Sep-19 23:02N 39°11' E 003°28'515.5
2018-Sep-19 22:44N 39°09' E 003°23'415.5
2018-Sep-19 22:29N 39°07' E 003°19'715.4
2018-Sep-19 22:01N 39°05' E 003°10'015.9
2018-Sep-19 22:00N 39°05' E 003°09'815.6
2018-Sep-19 21:30N 39°04' E 002°60'715.5
2018-Sep-19 21:03N 39°03' E 002°51'115.8
2018-Sep-19 21:00N 39°03' E 002°50'815.7
2018-Sep-19 20:30N 39°01' E 002°40'715.8
2018-Sep-19 20:04N 39°00' E 002°31'115.6
2018-Sep-19 20:00N 39°00' E 002°30'2814.2
2018-Sep-19 18:00N 38°54' E 001°54'732.9 360 / 111019.0 25.8 27.5
2018-Sep-19 17:47N 38°56' E 001°46'515.7
2018-Sep-19 17:28N 38°55' E 001°39'715.5
2018-Sep-19 17:02N 38°54' E 001°31'115.4
2018-Sep-19 17:00N 38°54' E 001°30'3 4.7
2018-Sep-19 16:28N 38°54' E 001°27'0 0.0
2018-Sep-19 16:01N 38°54' E 001°27'0 0.0
2018-Sep-19 15:58N 38°54' E 001°27'0 0.0
2018-Sep-19 15:25N 38°54' E 001°27'0 0.0
2018-Sep-19 15:01N 38°54' E 001°27'299.0
2018-Sep-19 15:00N 38°54' E 001°24'291.3 1020.0 5.4 25.5 27.3
2018-Sep-19 14:58N 38°54' E 001°27'0 0.0
2018-Sep-19 14:03N 38°54' E 001°27'0 0.0
2018-Sep-19 13:30N 38°54' E 001°27'0 0.0
2018-Sep-19 13:03N 38°54' E 001°27'0 0.0
2018-Sep-19 13:00N 38°54' E 001°27'0 0.0
2018-Sep-19 12:30N 38°54' E 001°27'0 0.0
2018-Sep-19 12:03N 38°54' E 001°27'0 0.0
2018-Sep-19 12:00N 38°54' E 001°27'0 0.0
2018-Sep-19 11:30N 38°54' E 001°27'0 0.0
2018-Sep-19 11:03N 38°54' E 001°27'0 0.0
2018-Sep-19 11:00N 38°54' E 001°27'0 0.0
2018-Sep-19 10:29N 38°54' E 001°27'0 0.0
2018-Sep-19 10:02N 38°54' E 001°27'0 0.0
2018-Sep-19 09:56N 38°54' E 001°27'0 0.0
2018-Sep-19 09:29N 38°54' E 001°27'0 0.0
2018-Sep-19 09:02N 38°54' E 001°27'0 0.0
2018-Sep-19 08:59N 38°54' E 001°27'0 0.0
2018-Sep-19 08:29N 38°54' E 001°27'0 0.0
2018-Sep-19 07:57N 38°54' E 001°27'0 0.0
2018-Sep-19 07:30N 38°54' E 001°27'0 0.0
2018-Sep-19 07:03N 38°54' E 001°27'0 0.0
2018-Sep-19 07:00N 38°54' E 001°27'0 0.0
2018-Sep-19 06:28N 38°54' E 001°27'0 0.0
2018-Sep-19 06:02N 38°54' E 001°27'255.5
2018-Sep-19 06:00N 38°54' E 001°24'295.5 320 / 31018.0 23.0 27.0
2018-Sep-19 05:58N 38°54' E 001°27'0 0.4
2018-Sep-19 05:26N 38°54' E 001°27'1 3.4
2018-Sep-19 05:03N 38°53' E 001°28'0 8.0
2018-Sep-19 05:00N 38°53' E 001°28'51909.6
2018-Sep-19 05:00N 38°48' E 001°30'3 5.0 310 / 4 25.0 27.2
2018-Sep-19 04:23N 38°47' E 001°34'412.4
2018-Sep-19 04:03N 38°44' E 001°37'112.5
2018-Sep-19 03:59N 38°43' E 001°38'10112.5
2018-Sep-18 19:52N 37°42' W 000°05'513.1
2018-Sep-18 19:30N 37°39' W 000°09'613.1
2018-Sep-18 19:03N 37°36' W 000°15'113.1
2018-Sep-18 19:00N 37°35' W 000°16'713.1
2018-Sep-18 18:30N 37°32' W 000°23'612.6
2018-Sep-18 18:03N 37°31' W 000°30'113.0
2018-Sep-18 18:00N 37°31' W 000°31'10647.8
2018-Sep-18 18:00N 37°30' W 000°18'1735.1 070 / 131015.0 25.8 26.9
2018-Sep-18 17:30N 37°31' W 000°39'613.2
2018-Sep-18 17:03N 37°31' W 000°47'113.1
2018-Sep-18 17:00N 37°31' W 000°48'713.2
2018-Sep-18 16:27N 37°31' W 000°57'4 9.1
2018-Sep-18 16:02N 37°35' W 000°59'0 5.9
2018-Sep-18 15:59N 37°35' W 000°59'6 3.2
2018-Sep-18 14:00N 37°30' W 000°54'6 0.9 050 / 111015.0 19.8 27.4
2018-Sep-18 07:00N 37°36' W 000°54'4 7.3 350 / 101015.0 24.2 27.5
2018-Sep-18 06:27N 37°36' W 000°59'1 3.3
2018-Sep-18 06:03N 37°34' W 000°59'1 9.0
2018-Sep-18 05:55N 37°33' W 000°60'5413.7
2018-Sep-18 02:00N 36°48' W 001°36'2323.1 020 / 21 25.3 25.3
2018-Sep-18 01:00N 36°30' W 001°54'28046.6 020 / 211015.0 24.2 24.8
2018-Sep-17 19:00N 36°36' E 003°54'40099.9 360 / 61014.0 25.0 24.3
2018-Sep-17 15:00N 36°42' W 004°24'0 0.0 050 / 3 26.1 23.7
2018-Sep-17 07:00N 36°42' W 004°24'13 3.2 250 / 41017.0 24.3 23.5
2018-Sep-17 03:00N 36°30' W 004°18'8 3.9 080 / 1 24.0 23.6
2018-Sep-17 01:00N 36°24' W 004°12'43 7.1 100 / 81019.0 24.0 21.0
2018-Sep-16 19:00N 36°06' W 005°00'6 4.9 060 / 161018.0 24.1 20.4
2018-Sep-16 17:40N 36°08' W 005°08'1 5.0
2018-Sep-16 17:30N 36°08' W 005°09'2 5.4
2018-Sep-16 17:03N 36°07' W 005°11'0 5.9
2018-Sep-16 17:00N 36°07' W 005°12'3 5.5
2018-Sep-16 16:30N 36°06' W 005°15'2 5.2
2018-Sep-16 16:03N 36°05' W 005°18'0 5.3
2018-Sep-16 16:00N 36°05' W 005°18'3 5.3
2018-Sep-16 15:30N 36°05' W 005°21'2 5.4
2018-Sep-16 15:04N 36°07' W 005°23'0 6.1
2018-Sep-16 15:00N 36°07' W 005°23'8566.1
2018-Sep-16 15:00N 36°00' W 005°18'919.4 060 / 14 25.5 21.6
2018-Sep-16 14:30N 36°09' W 005°22'0 0.1
2018-Sep-16 13:30N 36°09' W 005°22'0 0.0
2018-Sep-16 13:03N 36°09' W 005°22'0 0.0
2018-Sep-16 13:00N 36°09' W 005°22'0 0.0
2018-Sep-16 12:30N 36°09' W 005°22'0 0.0
2018-Sep-16 12:01N 36°09' W 005°22'0 0.0
2018-Sep-16 11:52N 36°09' W 005°22'0 0.0
2018-Sep-16 11:25N 36°09' W 005°22'410.1
2018-Sep-16 11:00N 36°06' W 005°18'4186.8 070 / 141020.0 25.8 21.5
2018-Sep-16 10:58N 36°09' W 005°22'0 0.0
2018-Sep-16 10:28N 36°09' W 005°22'0 0.0
2018-Sep-16 09:55N 36°09' W 005°22'0 0.0
2018-Sep-16 09:22N 36°09' W 005°22'0 0.0
2018-Sep-16 09:03N 36°09' W 005°22'0 0.0
2018-Sep-16 08:51N 36°09' W 005°22'0 0.0
2018-Sep-16 08:21N 36°09' W 005°22'0 0.0
2018-Sep-16 08:00N 36°09' W 005°22'0 0.0
2018-Sep-16 07:21N 36°09' W 005°22'0 0.0
2018-Sep-16 07:03N 36°09' W 005°22'0 0.0
2018-Sep-16 07:00N 36°09' W 005°22'0 0.0
2018-Sep-16 06:30N 36°09' W 005°22'0 0.0
2018-Sep-16 06:02N 36°09' W 005°22'0 0.0
2018-Sep-16 05:59N 36°09' W 005°22'0 0.0
2018-Sep-16 05:28N 36°09' W 005°22'0 0.0
2018-Sep-16 05:03N 36°09' W 005°22'0 0.1
2018-Sep-16 05:00N 36°09' W 005°22'2 3.1
2018-Sep-16 04:30N 36°07' W 005°23'4 8.0
2018-Sep-16 04:03N 36°04' W 005°20'114.0
2018-Sep-16 04:00N 36°04' W 005°19'713.5
2018-Sep-16 03:31N 36°06' W 005°11'1912.3
2018-Sep-16 02:00N 36°06' W 004°48'2525.0 050 / 15 22.6 20.7
2018-Sep-16 01:00N 36°12' W 004°18'8712.5 080 / 101019.0 22.0 21.2
2018-Sep-15 18:00N 36°18' W 002°30'20869.3 090 / 181018.0 25.4 24.7
2018-Sep-15 15:00N 36°30' E 001°48'15276.0 050 / 19 26.2 25.4
2018-Sep-15 13:00N 37°00' W 001°18'1013.9 030 / 141019.0 28.8 26.5
2018-Sep-15 12:18N 37°08' W 001°10'313.9
2018-Sep-15 12:03N 37°10' W 001°07'113.8
2018-Sep-15 12:00N 37°10' W 001°07'713.9
2018-Sep-15 11:29N 37°15' W 001°00'714.4
2018-Sep-15 11:01N 37°20' W 000°54'014.7
2018-Sep-15 11:00N 37°20' W 000°53'814.5
2018-Sep-15 10:29N 37°25' W 000°46'614.5
2018-Sep-15 10:03N 37°29' W 000°41'114.5
2018-Sep-15 10:00N 37°29' W 000°40'714.4
2018-Sep-15 09:30N 37°34' W 000°33'614.2
2018-Sep-15 09:03N 37°39' W 000°28'114.3
2018-Sep-15 08:59N 37°40' W 000°27'714.3
2018-Sep-15 08:30N 37°46' W 000°23'614.0
2018-Sep-15 08:02N 37°52' W 000°19'114.1
2018-Sep-15 07:59N 37°52' W 000°18'714.2
2018-Sep-15 07:30N 37°58' W 000°14'614.2
2018-Sep-15 07:03N 38°03' W 000°09'114.2
2018-Sep-15 06:59N 38°04' W 000°09'1010.5
2018-Sep-15 06:00N 38°12' E 000°00'4113.5 010 / 171018.0 23.0 27.0
2018-Sep-15 03:00N 38°48' E 000°24'   25.8 27.0
Track history (hours):
 
Tides and Currents Weather Stations Pressure Air Temp Water Temp Dewpoint Dewpoint Depression Visibility Wind Speed Wind Dir Waves Ship Positions

Celebrity Reflection

Last reported at 2018-Sep-24 21:00 UTC. Time now 2018-Sep-24 21:23 UTC.
Position N 36°42' E 023°49'.

Length 319 m; draft 8.6 m.

Type: Ship. MMSI: 229074000.

Date/timePositionNaut miles runAvg speedWind from/ knotsBaromVisibWave heightAir tempDewpointWater temp
2018-Sep-24 21:00N 36°42' E 023°49'815.8
2018-Sep-24 20:30N 36°37' E 023°41'715.8
2018-Sep-24 20:03N 36°33' E 023°34'115.9
2018-Sep-24 20:00N 36°33' E 023°33'815.7
2018-Sep-24 19:30N 36°29' E 023°25'4116.2
2018-Sep-24 17:00N 36°18' E 022°36'2914.5 230 / 161012.0 26.1 27.1
2018-Sep-24 15:00N 36°18' E 022°00'8216.5 270 / 131014.0 5.4 26.9 27.3
2018-Sep-24 10:00N 36°12' E 020°18'5819.5 290 / 81020.0 26.3 27.4
2018-Sep-24 07:00N 36°06' E 019°06'3411.3 290 / 91017.0 27.0 27.4
2018-Sep-24 04:00N 36°06' E 018°24'5919.5 300 / 151017.0 5.4 25.821.827.6
2018-Sep-24 01:00N 36°00' E 017°12'9713.9 290 / 121020.0 25.2 27.7
2018-Sep-23 18:00N 35°54' E 015°12'1514.6 310 / 51020.0 26.2 27.7
2018-Sep-23 17:00N 35°54' E 014°54'1038.2 340 / 51019.0 5.4 26.325.528.0
2018-Sep-23 16:43N 35°55' E 014°41'315.5
2018-Sep-23 16:30N 35°55' E 014°37'5 2.6
2018-Sep-23 14:28N 35°54' E 014°31'612.0
2018-Sep-23 14:00N 35°48' E 014°30'10 1.4 050 / 41020.0 27.6 28.3
2018-Sep-23 07:00N 35°48' E 014°42'30 7.6 290 / 21020.0 27.9 28.1
2018-Sep-23 03:00N 36°18' E 014°48'2613.2 310 / 61018.0 5.4 25.624.827.2
2018-Sep-23 01:00N 36°36' E 015°12'4212.2 290 / 101018.0 24.0 27.1
2018-Sep-22 21:30N 37°17' E 015°27'611.2
2018-Sep-22 21:00N 37°22' E 015°28'1910.9
2018-Sep-22 19:15N 37°41' E 015°31'913.5
2018-Sep-22 18:36N 37°50' E 015°32'113.5
2018-Sep-22 18:30N 37°51' E 015°32'713.5
2018-Sep-22 18:01N 37°58' E 015°33'4243.9
2018-Sep-22 18:00N 37°54' E 015°30'5326.6 100 / 51018.0 26.1 27.3
2018-Sep-22 17:59N 37°58' E 015°33'613.3
2018-Sep-22 17:30N 38°05' E 015°34'613.2
2018-Sep-22 17:03N 38°10' E 015°35'112.8
2018-Sep-22 17:00N 38°11' E 015°35'7 3.3
2018-Sep-22 15:00N 38°06' E 015°30'0 0.0 200 / 61016.010.8 26.723.724.0
2018-Sep-22 14:00N 38°06' E 015°30'62238.9 200 / 131016.0 26.9 24.0
2018-Sep-22 13:59N 38°12' E 015°33'0 0.0
2018-Sep-22 13:30N 38°12' E 015°33'0 0.0
2018-Sep-22 11:46N 38°12' E 015°33'0 0.0
2018-Sep-22 11:28N 38°12' E 015°33'0 0.0
2018-Sep-22 10:34N 38°12' E 015°33'0 0.0
2018-Sep-22 10:28N 38°12' E 015°33'0 0.0
2018-Sep-22 10:03N 38°12' E 015°33'0 0.0
2018-Sep-22 09:57N 38°12' E 015°33'0 0.0
2018-Sep-22 09:25N 38°12' E 015°33'0 0.0
2018-Sep-22 09:01N 38°12' E 015°33'0 0.0
2018-Sep-22 08:49N 38°12' E 015°33'0 0.0
2018-Sep-22 08:25N 38°12' E 015°33'0 0.0
2018-Sep-22 08:01N 38°12' E 015°33'0 0.0
2018-Sep-22 07:59N 38°12' E 015°33'0 0.2
2018-Sep-22 07:30N 38°12' E 015°34'2 4.9
2018-Sep-22 07:03N 38°13' E 015°36'114.1
2018-Sep-22 07:00N 38°14' E 015°36'613.0
2018-Sep-22 06:30N 38°20' E 015°39'817.5
2018-Sep-22 06:03N 38°27' E 015°35'117.1
2018-Sep-22 06:00N 38°27' E 015°34'917.3
2018-Sep-22 05:29N 38°35' E 015°29'817.2
2018-Sep-22 05:02N 38°42' E 015°24'017.1
2018-Sep-22 05:00N 38°43' E 015°24'1018.8
2018-Sep-22 04:28N 38°51' E 015°17'511.2
2018-Sep-22 04:00N 38°48' E 015°12'7323.5 100 / 151015.0 5.4 25.223.526.8
2018-Sep-22 00:53N 39°44' E 014°12'920.6
2018-Sep-22 00:28N 39°51' E 014°04'820.0
2018-Sep-22 00:03N 39°56' E 013°57'120.5
2018-Sep-22 00:00N 39°57' E 013°56'10625.6
2018-Sep-22 00:00N 39°48' E 014°00'3927.0 080 / 131015.0 24.9 26.6
2018-Sep-21 22:33N 40°19' E 013°28'320.5
2018-Sep-21 22:24N 40°21' E 013°26'1020.4
2018-Sep-21 21:56N 40°28' E 013°17'1320.4
2018-Sep-21 21:18N 40°37' E 013°05'5220.2
2018-Sep-21 18:43N 41°18' E 012°23'420.6
2018-Sep-21 18:30N 41°22' E 012°20'611.8
2018-Sep-21 18:00N 41°24' E 012°12'2827.5 030 / 71016.0 25.3 26.2
2018-Sep-21 17:00N 41°48' E 011°54'20 5.0 320 / 31016.0 5.4 25.015.726.2
2018-Sep-21 13:00N 42°06' E 011°42'0 0.0 1016.0 26.7 26.0
2018-Sep-21 07:00N 42°06' E 011°42'0 0.0 010 / 41015.0 24.6 25.8
2018-Sep-21 04:00N 42°06' E 011°42'21 7.2 020 / 41015.0 5.4 22.6 25.7
2018-Sep-21 01:00N 41°54' E 011°18'1410.8 140 / 91018.0 23.2
2018-Sep-20 23:41N 41°51' E 010°60'515.0
2018-Sep-20 23:22N 41°49' E 010°54'614.9
2018-Sep-20 23:00N 41°47' E 010°47'915.0
2018-Sep-20 22:25N 41°44' E 010°36'1615.3
2018-Sep-20 21:21N 41°39' E 010°15'515.4
2018-Sep-20 21:03N 41°37' E 010°09'4715.4
2018-Sep-20 18:00N 41°18' E 009°12'512.8 020 / 221015.0 25.4 26.2
2018-Sep-20 17:37N 41°18' E 009°06'215.3
2018-Sep-20 17:30N 41°18' E 009°03'715.0
2018-Sep-20 17:03N 41°17' E 008°54'115.0
2018-Sep-20 17:00N 41°17' E 008°54'815.2
2018-Sep-20 16:30N 41°15' E 008°44'1732.3
2018-Sep-20 16:00N 41°30' E 008°54'16818.7 080 / 101015.010.8 26.2 26.2
2018-Sep-20 07:00N 40°06' E 005°42'5919.6 340 / 161018.0 25.0 26.5
2018-Sep-20 04:00N 39°36' E 004°36'15 5.1 350 / 171019.0 5.4 24.7 26.8
2018-Sep-20 01:00N 39°24' E 004°24'3229.3 360 / 141019.0 20.4 26.9
2018-Sep-19 23:55N 39°18' E 003°44'715.8
2018-Sep-19 23:29N 39°15' E 003°36'715.4
2018-Sep-19 23:02N 39°11' E 003°28'515.5
2018-Sep-19 22:44N 39°09' E 003°23'415.5
2018-Sep-19 22:29N 39°07' E 003°19'715.4
2018-Sep-19 22:01N 39°05' E 003°10'015.9
2018-Sep-19 22:00N 39°05' E 003°09'815.6
2018-Sep-19 21:30N 39°04' E 002°60'715.5
2018-Sep-19 21:03N 39°03' E 002°51'115.8
2018-Sep-19 21:00N 39°03' E 002°50'815.7
2018-Sep-19 20:30N 39°01' E 002°40'715.8
2018-Sep-19 20:04N 39°00' E 002°31'115.6
2018-Sep-19 20:00N 39°00' E 002°30'2814.2
2018-Sep-19 18:00N 38°54' E 001°54'732.9 360 / 111019.0 25.8 27.5
2018-Sep-19 17:47N 38°56' E 001°46'515.7
2018-Sep-19 17:28N 38°55' E 001°39'715.5
2018-Sep-19 17:02N 38°54' E 001°31'115.4
2018-Sep-19 17:00N 38°54' E 001°30'3 4.7
2018-Sep-19 16:28N 38°54' E 001°27'0 0.0
2018-Sep-19 16:01N 38°54' E 001°27'0 0.0
2018-Sep-19 15:58N 38°54' E 001°27'0 0.0
2018-Sep-19 15:25N 38°54' E 001°27'0 0.0
2018-Sep-19 15:01N 38°54' E 001°27'299.0
2018-Sep-19 15:00N 38°54' E 001°24'291.3 1020.0 5.4 25.5 27.3
2018-Sep-19 14:58N 38°54' E 001°27'0 0.0
2018-Sep-19 14:03N 38°54' E 001°27'0 0.0
2018-Sep-19 13:30N 38°54' E 001°27'0 0.0
2018-Sep-19 13:03N 38°54' E 001°27'0 0.0
2018-Sep-19 13:00N 38°54' E 001°27'0 0.0
2018-Sep-19 12:30N 38°54' E 001°27'0 0.0
2018-Sep-19 12:03N 38°54' E 001°27'0 0.0
2018-Sep-19 12:00N 38°54' E 001°27'0 0.0
2018-Sep-19 11:30N 38°54' E 001°27'0 0.0
2018-Sep-19 11:03N 38°54' E 001°27'0 0.0
2018-Sep-19 11:00N 38°54' E 001°27'0 0.0
2018-Sep-19 10:29N 38°54' E 001°27'0 0.0
2018-Sep-19 10:02N 38°54' E 001°27'0 0.0
2018-Sep-19 09:56N 38°54' E 001°27'0 0.0
2018-Sep-19 09:29N 38°54' E 001°27'0 0.0
2018-Sep-19 09:02N 38°54' E 001°27'0 0.0
2018-Sep-19 08:59N 38°54' E 001°27'0 0.0
2018-Sep-19 08:29N 38°54' E 001°27'0 0.0
2018-Sep-19 07:57N 38°54' E 001°27'0 0.0
2018-Sep-19 07:30N 38°54' E 001°27'0 0.0
2018-Sep-19 07:03N 38°54' E 001°27'0 0.0
2018-Sep-19 07:00N 38°54' E 001°27'0 0.0
2018-Sep-19 06:28N 38°54' E 001°27'0 0.0
2018-Sep-19 06:02N 38°54' E 001°27'255.5
2018-Sep-19 06:00N 38°54' E 001°24'295.5 320 / 31018.0 23.0 27.0
2018-Sep-19 05:58N 38°54' E 001°27'0 0.4
2018-Sep-19 05:26N 38°54' E 001°27'1 3.4
2018-Sep-19 05:03N 38°53' E 001°28'0 8.0
2018-Sep-19 05:00N 38°53' E 001°28'51909.6
2018-Sep-19 05:00N 38°48' E 001°30'3 5.0 310 / 4 25.0 27.2
2018-Sep-19 04:23N 38°47' E 001°34'412.4
2018-Sep-19 04:03N 38°44' E 001°37'112.5
2018-Sep-19 03:59N 38°43' E 001°38'10112.5
2018-Sep-18 19:52N 37°42' W 000°05'513.1
2018-Sep-18 19:30N 37°39' W 000°09'613.1
2018-Sep-18 19:03N 37°36' W 000°15'113.1
2018-Sep-18 19:00N 37°35' W 000°16'713.1
2018-Sep-18 18:30N 37°32' W 000°23'612.6
2018-Sep-18 18:03N 37°31' W 000°30'113.0
2018-Sep-18 18:00N 37°31' W 000°31'10647.8
2018-Sep-18 18:00N 37°30' W 000°18'1735.1 070 / 131015.0 25.8 26.9
2018-Sep-18 17:30N 37°31' W 000°39'613.2
2018-Sep-18 17:03N 37°31' W 000°47'113.1
2018-Sep-18 17:00N 37°31' W 000°48'713.2
2018-Sep-18 16:27N 37°31' W 000°57'4 9.1
2018-Sep-18 16:02N 37°35' W 000°59'0 5.9
2018-Sep-18 15:59N 37°35' W 000°59'6 3.2
2018-Sep-18 14:00N 37°30' W 000°54'6 0.9 050 / 111015.0 19.8 27.4
2018-Sep-18 07:00N 37°36' W 000°54'4 7.3 350 / 101015.0 24.2 27.5
2018-Sep-18 06:27N 37°36' W 000°59'1 3.3
2018-Sep-18 06:03N 37°34' W 000°59'1 9.0
2018-Sep-18 05:55N 37°33' W 000°60'5413.7
2018-Sep-18 02:00N 36°48' W 001°36'2323.1 020 / 21 25.3 25.3
2018-Sep-18 01:00N 36°30' W 001°54'28046.6 020 / 211015.0 24.2 24.8
2018-Sep-17 19:00N 36°36' E 003°54'40099.9 360 / 61014.0 25.0 24.3
2018-Sep-17 15:00N 36°42' W 004°24'0 0.0 050 / 3 26.1 23.7
2018-Sep-17 07:00N 36°42' W 004°24'13 3.2 250 / 41017.0 24.3 23.5
2018-Sep-17 03:00N 36°30' W 004°18'8 3.9 080 / 1 24.0 23.6
2018-Sep-17 01:00N 36°24' W 004°12'43 7.1 100 / 81019.0 24.0 21.0
2018-Sep-16 19:00N 36°06' W 005°00'6 4.9 060 / 161018.0 24.1 20.4
2018-Sep-16 17:40N 36°08' W 005°08'1 5.0
2018-Sep-16 17:30N 36°08' W 005°09'2 5.4
2018-Sep-16 17:03N 36°07' W 005°11'0 5.9
2018-Sep-16 17:00N 36°07' W 005°12'3 5.5
2018-Sep-16 16:30N 36°06' W 005°15'2 5.2
2018-Sep-16 16:03N 36°05' W 005°18'0 5.3
2018-Sep-16 16:00N 36°05' W 005°18'3 5.3
2018-Sep-16 15:30N 36°05' W 005°21'2 5.4
2018-Sep-16 15:04N 36°07' W 005°23'0 6.1
2018-Sep-16 15:00N 36°07' W 005°23'8566.1
2018-Sep-16 15:00N 36°00' W 005°18'919.4 060 / 14 25.5 21.6
2018-Sep-16 14:30N 36°09' W 005°22'0 0.1
2018-Sep-16 13:30N 36°09' W 005°22'0 0.0
2018-Sep-16 13:03N 36°09' W 005°22'0 0.0
2018-Sep-16 13:00N 36°09' W 005°22'0 0.0
2018-Sep-16 12:30N 36°09' W 005°22'0 0.0
2018-Sep-16 12:01N 36°09' W 005°22'0 0.0
2018-Sep-16 11:52N 36°09' W 005°22'0 0.0
2018-Sep-16 11:25N 36°09' W 005°22'410.1
2018-Sep-16 11:00N 36°06' W 005°18'4186.8 070 / 141020.0 25.8 21.5
2018-Sep-16 10:58N 36°09' W 005°22'0 0.0
2018-Sep-16 10:28N 36°09' W 005°22'0 0.0
2018-Sep-16 09:55N 36°09' W 005°22'0 0.0
2018-Sep-16 09:22N 36°09' W 005°22'0 0.0
2018-Sep-16 09:03N 36°09' W 005°22'0 0.0
2018-Sep-16 08:51N 36°09' W 005°22'0 0.0
2018-Sep-16 08:21N 36°09' W 005°22'0 0.0
2018-Sep-16 08:00N 36°09' W 005°22'0 0.0
2018-Sep-16 07:21N 36°09' W 005°22'0 0.0
2018-Sep-16 07:03N 36°09' W 005°22'0 0.0
2018-Sep-16 07:00N 36°09' W 005°22'0 0.0
2018-Sep-16 06:30N 36°09' W 005°22'0 0.0
2018-Sep-16 06:02N 36°09' W 005°22'0 0.0
2018-Sep-16 05:59N 36°09' W 005°22'0 0.0
2018-Sep-16 05:28N 36°09' W 005°22'0 0.0
2018-Sep-16 05:03N 36°09' W 005°22'0 0.1
2018-Sep-16 05:00N 36°09' W 005°22'2 3.1
2018-Sep-16 04:30N 36°07' W 005°23'4 8.0
2018-Sep-16 04:03N 36°04' W 005°20'114.0
2018-Sep-16 04:00N 36°04' W 005°19'713.5
2018-Sep-16 03:31N 36°06' W 005°11'1912.3
2018-Sep-16 02:00N 36°06' W 004°48'2525.0 050 / 15 22.6 20.7
2018-Sep-16 01:00N 36°12' W 004°18'8712.5 080 / 101019.0 22.0 21.2
2018-Sep-15 18:00N 36°18' W 002°30'20869.3 090 / 181018.0 25.4 24.7
2018-Sep-15 15:00N 36°30' E 001°48'15276.0 050 / 19 26.2 25.4
2018-Sep-15 13:00N 37°00' W 001°18'1013.9 030 / 141019.0 28.8 26.5
2018-Sep-15 12:18N 37°08' W 001°10'313.9
2018-Sep-15 12:03N 37°10' W 001°07'113.8
2018-Sep-15 12:00N 37°10' W 001°07'713.9
2018-Sep-15 11:29N 37°15' W 001°00'714.4
2018-Sep-15 11:01N 37°20' W 000°54'014.7
2018-Sep-15 11:00N 37°20' W 000°53'814.5
2018-Sep-15 10:29N 37°25' W 000°46'614.5
2018-Sep-15 10:03N 37°29' W 000°41'114.5
2018-Sep-15 10:00N 37°29' W 000°40'714.4
2018-Sep-15 09:30N 37°34' W 000°33'614.2
2018-Sep-15 09:03N 37°39' W 000°28'114.3
2018-Sep-15 08:59N 37°40' W 000°27'714.3
2018-Sep-15 08:30N 37°46' W 000°23'614.0
2018-Sep-15 08:02N 37°52' W 000°19'114.1
2018-Sep-15 07:59N 37°52' W 000°18'714.2
2018-Sep-15 07:30N 37°58' W 000°14'614.2
2018-Sep-15 07:03N 38°03' W 000°09'114.2
2018-Sep-15 06:59N 38°04' W 000°09'1010.5
2018-Sep-15 06:00N 38°12' E 000°00'4113.5 010 / 171018.0 23.0 27.0
2018-Sep-15 03:00N 38°48' E 000°24'   25.8 27.0

Dump ship's entire track history